createdAt,value
2024-03-23T00:00:57.066Z,0.00
2024-03-23T00:01:57.017Z,0.00
2024-03-23T00:02:57.028Z,0.00
2024-03-23T00:03:57.018Z,0.00
2024-03-23T00:04:56.992Z,0.00
2024-03-23T00:05:56.965Z,0.00
2024-03-23T00:06:56.963Z,0.00
2024-03-23T00:07:56.945Z,0.00
2024-03-23T00:08:56.955Z,0.00
2024-03-23T00:09:56.955Z,0.00
2024-03-23T00:10:56.929Z,0.00
2024-03-23T00:11:56.899Z,0.00
2024-03-23T00:12:56.895Z,0.00
2024-03-23T00:13:56.883Z,0.00
2024-03-23T00:14:56.887Z,0.00
2024-03-23T00:15:56.859Z,0.00
2024-03-23T00:16:56.869Z,0.00
2024-03-23T00:17:56.863Z,0.00
2024-03-23T00:18:56.866Z,0.00
2024-03-23T00:19:56.824Z,0.00
2024-03-23T00:20:56.812Z,0.00
2024-03-23T00:21:56.812Z,0.00
2024-03-23T00:22:56.812Z,0.00
2024-03-23T00:23:56.821Z,0.00
2024-03-23T00:24:56.764Z,0.00
2024-03-23T00:25:56.786Z,0.00
2024-03-23T00:26:56.895Z,0.00
2024-03-23T00:27:56.738Z,0.00
2024-03-23T00:28:56.727Z,0.00
2024-03-23T00:29:56.781Z,0.00
2024-03-23T00:30:56.699Z,0.00
2024-03-23T00:31:56.695Z,0.00
2024-03-23T00:32:56.686Z,0.00
2024-03-23T00:33:56.692Z,0.00
2024-03-23T00:34:56.655Z,0.00
2024-03-23T00:35:56.640Z,0.00
2024-03-23T00:36:56.694Z,0.00
2024-03-23T00:37:56.613Z,0.00
2024-03-23T00:38:56.641Z,0.00
2024-03-23T00:39:56.609Z,0.00
2024-03-23T00:40:56.584Z,0.00
2024-03-23T00:42:00.139Z,0.00
2024-03-23T00:42:56.561Z,0.00
2024-03-23T00:43:56.549Z,0.00
2024-03-23T00:44:56.611Z,0.00
2024-03-23T00:45:56.531Z,0.00
2024-03-23T00:46:56.532Z,0.00
2024-03-23T00:47:56.526Z,0.00
2024-03-23T00:48:56.501Z,0.00
2024-03-23T00:49:56.520Z,0.00
2024-03-23T00:50:56.531Z,0.00
2024-03-23T00:51:56.504Z,0.00
2024-03-23T00:52:56.454Z,0.00
2024-03-23T00:53:56.466Z,0.00
2024-03-23T00:54:56.433Z,0.00
2024-03-23T00:55:56.438Z,0.00
2024-03-23T00:56:56.415Z,0.00
2024-03-23T00:57:56.435Z,0.00
2024-03-23T00:58:56.431Z,0.00
2024-03-23T00:59:56.378Z,0.00
2024-03-23T01:00:56.387Z,0.00
2024-03-23T01:01:56.366Z,0.00
2024-03-23T01:02:56.367Z,0.00
2024-03-23T01:03:56.323Z,0.00
2024-03-23T01:04:56.324Z,0.00
2024-03-23T01:05:56.320Z,0.00
2024-03-23T01:06:56.317Z,0.00
2024-03-23T01:07:56.298Z,0.00
2024-03-23T01:08:56.285Z,0.00
2024-03-23T01:09:56.263Z,0.00
2024-03-23T01:10:56.257Z,0.00
2024-03-23T01:11:56.243Z,0.00
2024-03-23T01:12:56.273Z,0.00
2024-03-23T01:13:56.242Z,0.00
2024-03-23T01:14:56.260Z,0.00
2024-03-23T01:15:56.195Z,0.00
2024-03-23T01:16:56.274Z,0.00
2024-03-23T01:17:56.205Z,0.00
2024-03-23T01:18:56.162Z,0.00
2024-03-23T01:19:56.193Z,0.00
2024-03-23T01:20:56.207Z,0.00
2024-03-23T01:21:56.172Z,0.00
2024-03-23T01:22:57.708Z,0.00
2024-03-23T01:23:56.139Z,0.00
2024-03-23T01:24:56.116Z,0.00
2024-03-23T01:25:56.095Z,0.00
2024-03-23T01:26:56.084Z,0.00
2024-03-23T01:27:56.085Z,0.00
2024-03-23T01:28:56.062Z,0.00
2024-03-23T01:29:56.082Z,0.00
2024-03-23T01:30:56.072Z,0.00
2024-03-23T01:31:56.085Z,0.00
2024-03-23T01:32:56.079Z,0.00
2024-03-23T01:33:56.036Z,0.00
2024-03-23T01:34:56.062Z,0.00
2024-03-23T01:35:56.099Z,0.00
2024-03-23T01:36:56.057Z,0.00
2024-03-23T01:37:56.041Z,0.00
2024-03-23T01:38:56.073Z,0.00
2024-03-23T01:39:55.943Z,0.00
2024-03-23T01:40:55.919Z,0.00
2024-03-23T01:41:55.932Z,0.00
2024-03-23T01:42:55.899Z,0.00
2024-03-23T01:43:55.921Z,0.00
2024-03-23T01:44:55.919Z,0.00
2024-03-23T01:45:55.896Z,0.00
2024-03-23T01:46:55.864Z,0.00
2024-03-23T01:47:55.848Z,0.00
2024-03-23T01:48:55.836Z,0.00
2024-03-23T01:49:55.833Z,0.00
2024-03-23T01:50:55.835Z,0.00
2024-03-23T01:51:55.793Z,0.00
2024-03-23T01:52:55.809Z,0.00
2024-03-23T01:53:55.789Z,0.00
2024-03-23T01:54:55.819Z,0.00
2024-03-23T01:55:55.752Z,0.00
2024-03-23T01:56:55.776Z,0.00
2024-03-23T01:57:55.773Z,0.00
2024-03-23T01:58:55.730Z,0.00
2024-03-23T01:59:55.715Z,0.00
2024-03-23T02:00:55.728Z,0.00
2024-03-23T02:01:55.735Z,0.00
2024-03-23T02:02:55.684Z,0.00
2024-03-23T02:03:55.664Z,0.00
2024-03-23T02:04:55.675Z,0.00
2024-03-23T02:05:55.648Z,0.00
2024-03-23T02:06:55.665Z,0.00
2024-03-23T02:07:55.655Z,0.00
2024-03-23T02:08:55.635Z,0.00
2024-03-23T02:09:55.618Z,0.00
2024-03-23T02:10:55.610Z,0.00
2024-03-23T02:11:55.644Z,0.00
2024-03-23T02:12:55.591Z,0.00
2024-03-23T02:13:55.593Z,0.00
2024-03-23T02:14:55.545Z,0.00
2024-03-23T02:15:55.556Z,0.00
2024-03-23T02:16:55.539Z,0.00
2024-03-23T02:17:55.516Z,0.00
2024-03-23T02:18:55.516Z,0.00
2024-03-23T02:19:55.499Z,0.00
2024-03-23T02:20:55.498Z,0.00
2024-03-23T02:21:55.470Z,0.00
2024-03-23T02:22:55.511Z,0.00
2024-03-23T02:23:55.454Z,0.00
2024-03-23T02:24:55.472Z,0.00
2024-03-23T02:25:55.497Z,0.00
2024-03-23T02:26:55.416Z,0.00
2024-03-23T02:27:55.412Z,0.00
2024-03-23T02:28:55.401Z,0.00
2024-03-23T02:29:55.421Z,0.00
2024-03-23T02:30:55.368Z,0.00
2024-03-23T02:31:55.361Z,0.00
2024-03-23T02:32:55.369Z,0.00
2024-03-23T02:33:55.382Z,0.00
2024-03-23T02:34:55.347Z,0.00
2024-03-23T02:35:55.358Z,0.00
2024-03-23T02:36:55.332Z,0.00
2024-03-23T02:37:55.309Z,0.00
2024-03-23T02:38:55.329Z,0.00
2024-03-23T02:39:55.275Z,0.00
2024-03-23T02:40:55.269Z,0.00
2024-03-23T02:41:55.264Z,0.00
2024-03-23T02:42:55.290Z,0.00
2024-03-23T02:43:55.259Z,0.00
2024-03-23T02:44:55.208Z,0.00
2024-03-23T02:45:55.204Z,0.00
2024-03-23T02:46:55.209Z,0.00
2024-03-23T02:47:55.204Z,0.00
2024-03-23T02:48:55.173Z,0.00
2024-03-23T02:49:55.166Z,0.00
2024-03-23T02:50:55.191Z,0.00
2024-03-23T02:51:55.129Z,0.00
2024-03-23T02:52:55.173Z,0.00
2024-03-23T02:53:55.125Z,0.00
2024-03-23T02:54:55.113Z,0.00
2024-03-23T02:55:55.120Z,0.00
2024-03-23T02:56:55.116Z,0.00
2024-03-23T02:57:55.063Z,0.00
2024-03-23T02:58:55.068Z,0.00
2024-03-23T02:59:55.076Z,0.00
2024-03-23T03:00:55.044Z,0.00
2024-03-23T03:01:55.037Z,0.00
2024-03-23T03:02:55.010Z,0.00
2024-03-23T03:03:55.000Z,0.00
2024-03-23T03:04:55.907Z,0.00
2024-03-23T03:05:55.001Z,0.00
2024-03-23T03:06:54.984Z,0.00
2024-03-23T03:07:54.984Z,0.00
2024-03-23T03:08:54.963Z,0.00
2024-03-23T03:09:54.991Z,0.00
2024-03-23T03:10:54.939Z,0.00
2024-03-23T03:11:54.922Z,0.00
2024-03-23T03:12:54.931Z,0.00
2024-03-23T03:13:54.914Z,0.00
2024-03-23T03:14:54.886Z,0.00
2024-03-23T03:15:54.938Z,0.00
2024-03-23T03:16:54.856Z,0.00
2024-03-23T03:17:54.849Z,0.00
2024-03-23T03:18:54.862Z,0.00
2024-03-23T03:19:54.818Z,0.00
2024-03-23T03:20:54.810Z,0.00
2024-03-23T03:21:54.882Z,0.00
2024-03-23T03:22:54.787Z,0.00
2024-03-23T03:23:54.781Z,0.00
2024-03-23T03:24:54.776Z,0.00
2024-03-23T03:25:54.786Z,0.00
2024-03-23T03:26:54.782Z,0.00
2024-03-23T03:27:54.776Z,0.00
2024-03-23T03:28:54.754Z,0.00
2024-03-23T03:29:54.721Z,0.00
2024-03-23T03:30:54.740Z,0.00
2024-03-23T03:31:54.694Z,0.00
2024-03-23T03:32:54.740Z,0.00
2024-03-23T03:33:54.670Z,0.00
2024-03-23T03:34:54.652Z,0.00
2024-03-23T03:35:54.667Z,0.00
2024-03-23T03:36:54.657Z,0.00
2024-03-23T03:37:54.627Z,0.00
2024-03-23T03:38:54.626Z,0.00
2024-03-23T03:39:54.598Z,0.00
2024-03-23T03:40:54.591Z,0.00
2024-03-23T03:41:54.578Z,0.00
2024-03-23T03:42:54.563Z,0.00
2024-03-23T03:43:54.578Z,0.00
2024-03-23T03:44:54.556Z,0.00
2024-03-23T03:45:54.558Z,0.00
2024-03-23T03:46:54.551Z,0.00
2024-03-23T03:47:54.523Z,0.00
2024-03-23T03:48:54.503Z,0.00
2024-03-23T03:49:54.495Z,0.00
2024-03-23T03:50:54.486Z,0.00
2024-03-23T03:51:54.508Z,0.00
2024-03-23T03:52:54.463Z,0.00
2024-03-23T03:53:54.504Z,0.00
2024-03-23T03:54:54.431Z,0.00
2024-03-23T03:55:54.423Z,0.00
2024-03-23T03:56:54.458Z,0.00
2024-03-23T03:57:54.400Z,0.00
2024-03-23T03:58:54.399Z,0.00
2024-03-23T03:59:54.372Z,0.00
2024-03-23T04:00:54.390Z,0.00
2024-03-23T04:01:54.351Z,0.00
2024-03-23T04:02:54.367Z,0.00
2024-03-23T04:03:54.351Z,0.00
2024-03-23T04:04:54.354Z,0.00
2024-03-23T04:05:54.320Z,0.00
2024-03-23T04:06:54.296Z,0.00
2024-03-23T04:07:54.287Z,0.00
2024-03-23T04:08:54.279Z,0.00
2024-03-23T04:09:54.302Z,0.00
2024-03-23T04:10:54.269Z,0.00
2024-03-23T04:11:54.251Z,0.00
2024-03-23T04:12:54.253Z,0.00
2024-03-23T04:13:54.252Z,0.00
2024-03-23T04:14:54.217Z,0.00
2024-03-23T04:15:54.219Z,0.00
2024-03-23T04:16:54.210Z,0.00
2024-03-23T04:17:54.216Z,0.00
2024-03-23T04:18:54.223Z,0.00
2024-03-23T04:19:54.159Z,0.00
2024-03-23T04:20:54.204Z,0.00
2024-03-23T04:21:54.145Z,0.00
2024-03-23T04:22:54.162Z,0.00
2024-03-23T04:23:54.148Z,0.00
2024-03-23T04:24:54.106Z,0.00
2024-03-23T04:25:54.091Z,0.00
2024-03-23T04:26:54.082Z,0.00
2024-03-23T04:27:54.092Z,0.00
2024-03-23T04:28:54.057Z,0.00
2024-03-23T04:29:54.131Z,0.00
2024-03-23T04:30:54.038Z,0.00
2024-03-23T04:31:54.021Z,0.00
2024-03-23T04:32:54.111Z,0.00
2024-03-23T04:33:54.021Z,0.00
2024-03-23T04:34:54.024Z,0.00
2024-03-23T04:35:53.988Z,0.00
2024-03-23T04:36:53.967Z,0.00
2024-03-23T04:37:53.965Z,0.00
2024-03-23T04:38:53.983Z,0.00
2024-03-23T04:39:53.966Z,0.00
2024-03-23T04:40:53.919Z,0.00
2024-03-23T04:41:53.914Z,0.00
2024-03-23T04:42:53.936Z,0.00
2024-03-23T04:43:53.910Z,0.00
2024-03-23T04:44:53.891Z,0.00
2024-03-23T04:45:53.895Z,0.00
2024-03-23T04:46:53.869Z,0.00
2024-03-23T04:47:53.880Z,0.00
2024-03-23T04:48:53.866Z,0.00
2024-03-23T04:49:53.830Z,0.00
2024-03-23T04:50:53.869Z,0.00
2024-03-23T04:51:53.806Z,0.00
2024-03-23T04:52:53.807Z,0.00
2024-03-23T04:53:53.817Z,0.00
2024-03-23T04:54:53.798Z,0.00
2024-03-23T04:55:53.760Z,0.00
2024-03-23T04:56:53.740Z,0.00
2024-03-23T04:57:53.746Z,0.00
2024-03-23T04:58:53.750Z,0.00
2024-03-23T04:59:53.706Z,0.00
2024-03-23T05:00:53.699Z,0.00
2024-03-23T05:01:53.696Z,0.00
2024-03-23T05:02:53.683Z,0.00
2024-03-23T05:03:53.663Z,0.00
2024-03-23T05:04:53.711Z,0.00
2024-03-23T05:05:53.720Z,0.00
2024-03-23T05:06:53.632Z,0.00
2024-03-23T05:07:53.625Z,0.00
2024-03-23T05:08:53.623Z,0.00
2024-03-23T05:09:53.623Z,0.00
2024-03-23T05:10:53.606Z,0.00
2024-03-23T05:11:53.615Z,0.00
2024-03-23T05:12:53.593Z,0.00
2024-03-23T05:13:53.555Z,0.00
2024-03-23T05:14:53.549Z,0.00
2024-03-23T05:15:53.555Z,0.00
2024-03-23T05:16:53.524Z,0.00
2024-03-23T05:17:53.523Z,0.00
2024-03-23T05:18:53.520Z,0.00
2024-03-23T05:19:53.506Z,0.00
2024-03-23T05:20:53.547Z,0.00
2024-03-23T05:21:53.468Z,0.00
2024-03-23T05:22:53.484Z,0.00
2024-03-23T05:23:53.466Z,0.00
2024-03-23T05:24:53.430Z,0.00
2024-03-23T05:25:53.430Z,0.00
2024-03-23T05:26:53.407Z,0.00
2024-03-23T05:27:53.398Z,0.00
2024-03-23T05:28:53.437Z,0.00
2024-03-23T05:29:53.379Z,0.00
2024-03-23T05:30:53.360Z,0.00
2024-03-23T05:31:53.353Z,0.00
2024-03-23T05:32:53.363Z,0.00
2024-03-23T05:33:53.333Z,0.00
2024-03-23T05:34:53.347Z,0.00
2024-03-23T05:35:53.316Z,0.00
2024-03-23T05:36:53.356Z,0.00
2024-03-23T05:37:53.307Z,0.00
2024-03-23T05:38:53.283Z,0.00
2024-03-23T05:39:53.273Z,0.00
2024-03-23T05:40:53.291Z,0.00
2024-03-23T05:41:53.278Z,0.00
2024-03-23T05:42:53.295Z,0.00
2024-03-23T05:43:53.232Z,0.00
2024-03-23T05:44:53.218Z,0.00
2024-03-23T05:45:53.203Z,0.00
2024-03-23T05:46:53.203Z,0.00
2024-03-23T05:47:53.221Z,0.00
2024-03-23T05:48:53.177Z,0.00
2024-03-23T05:49:53.174Z,0.00
2024-03-23T05:50:53.177Z,0.00
2024-03-23T05:51:53.142Z,0.00
2024-03-23T05:52:53.145Z,0.00
2024-03-23T05:53:53.115Z,0.00
2024-03-23T05:54:53.128Z,0.00
2024-03-23T05:55:53.136Z,0.00
2024-03-23T05:56:53.129Z,0.00
2024-03-23T05:57:53.076Z,0.00
2024-03-23T05:58:53.061Z,0.00
2024-03-23T05:59:53.091Z,0.00
2024-03-23T06:00:53.076Z,0.00
2024-03-23T06:01:53.024Z,0.00
2024-03-23T06:02:53.012Z,0.00
2024-03-23T06:03:53.024Z,0.00
2024-03-23T06:04:53.007Z,0.00
2024-03-23T06:05:53.808Z,0.00
2024-03-23T06:06:52.983Z,0.00
2024-03-23T06:07:52.974Z,0.00
2024-03-23T06:08:52.973Z,0.00
2024-03-23T06:09:52.957Z,0.00
2024-03-23T06:10:52.947Z,0.00
2024-03-23T06:11:52.906Z,0.00
2024-03-23T06:12:52.893Z,0.00
2024-03-23T06:13:52.894Z,0.00
2024-03-23T06:14:52.904Z,0.00
2024-03-23T06:15:52.885Z,0.00
2024-03-23T06:16:52.882Z,0.00
2024-03-23T06:17:52.836Z,0.00
2024-03-23T06:18:52.843Z,0.00
2024-03-23T06:19:52.838Z,0.00
2024-03-23T06:20:52.809Z,0.00
2024-03-23T06:21:52.828Z,0.00
2024-03-23T06:22:52.841Z,0.00
2024-03-23T06:23:52.784Z,5.62
2024-03-23T06:24:52.819Z,5.62
2024-03-23T06:25:52.755Z,5.62
2024-03-23T06:26:52.744Z,0.00
2024-03-23T06:27:52.776Z,0.00
2024-03-23T06:28:52.743Z,0.00
2024-03-23T06:29:52.750Z,0.00
2024-03-23T06:30:52.701Z,5.62
2024-03-23T06:31:52.708Z,5.62
2024-03-23T06:32:52.674Z,5.62
2024-03-23T06:33:52.721Z,5.62
2024-03-23T06:34:52.656Z,5.62
2024-03-23T06:35:52.664Z,5.62
2024-03-23T06:36:52.631Z,5.62
2024-03-23T06:37:52.665Z,5.62
2024-03-23T06:38:52.679Z,5.62
2024-03-23T06:40:00.302Z,5.62
2024-03-23T06:40:52.591Z,5.62
2024-03-23T06:41:52.591Z,5.62
2024-03-23T06:42:52.561Z,0.00
2024-03-23T06:43:54.124Z,0.00
2024-03-23T06:44:52.553Z,0.00
2024-03-23T06:45:52.538Z,0.00
2024-03-23T06:46:52.537Z,0.00
2024-03-23T06:47:52.515Z,0.00
2024-03-23T06:48:52.506Z,0.00
2024-03-23T06:49:52.502Z,0.00
2024-03-23T06:50:52.488Z,0.00
2024-03-23T06:51:52.470Z,0.00
2024-03-23T06:52:52.468Z,0.00
2024-03-23T06:53:52.461Z,0.00
2024-03-23T06:54:52.444Z,0.00
2024-03-23T06:55:52.428Z,0.00
2024-03-23T06:56:52.405Z,0.00
2024-03-23T06:57:52.430Z,0.00
2024-03-23T06:58:52.418Z,0.00
2024-03-23T06:59:52.372Z,0.00
2024-03-23T07:00:52.390Z,0.00
2024-03-23T07:01:52.399Z,0.00
2024-03-23T07:02:52.345Z,0.00
2024-03-23T07:03:52.364Z,0.00
2024-03-23T07:04:52.334Z,0.00
2024-03-23T07:05:52.319Z,0.00
2024-03-23T07:06:52.309Z,0.00
2024-03-23T07:07:52.293Z,0.00
2024-03-23T07:08:52.331Z,0.00
2024-03-23T07:09:52.263Z,0.00
2024-03-23T07:10:52.249Z,0.00
2024-03-23T07:11:52.260Z,0.00
2024-03-23T07:12:52.227Z,0.00
2024-03-23T07:13:52.212Z,0.00
2024-03-23T07:14:52.220Z,0.00
2024-03-23T07:15:52.239Z,0.00
2024-03-23T07:16:59.778Z,0.00
2024-03-23T07:17:52.175Z,0.00
2024-03-23T07:18:52.213Z,0.00
2024-03-23T07:19:52.150Z,0.00
2024-03-23T07:20:52.142Z,0.00
2024-03-23T07:21:52.268Z,0.00
2024-03-23T07:22:52.114Z,0.00
2024-03-23T07:23:52.116Z,0.00
2024-03-23T07:24:52.099Z,0.00
2024-03-23T07:25:52.081Z,0.00
2024-03-23T07:26:52.070Z,0.00
2024-03-23T07:27:52.154Z,0.00
2024-03-23T07:28:52.048Z,0.00
2024-03-23T07:29:52.048Z,0.00
2024-03-23T07:30:52.029Z,0.00
2024-03-23T07:31:52.033Z,0.00
2024-03-23T07:32:52.015Z,0.00
2024-03-23T07:33:51.990Z,0.00
2024-03-23T07:34:52.053Z,0.00
2024-03-23T07:35:51.974Z,0.00
2024-03-23T07:36:51.955Z,0.00
2024-03-23T07:37:51.961Z,0.00
2024-03-23T07:38:52.698Z,0.00
2024-03-23T07:39:52.925Z,0.00
2024-03-23T07:40:52.490Z,0.00
2024-03-23T07:41:51.917Z,0.00
2024-03-23T07:42:51.968Z,0.00
2024-03-23T07:43:51.893Z,0.00
2024-03-23T07:44:51.909Z,0.00
2024-03-23T07:45:51.895Z,0.00
2024-03-23T07:46:51.999Z,0.00
2024-03-23T07:47:51.835Z,0.00
2024-03-23T07:48:51.825Z,0.00
2024-03-23T07:49:51.851Z,0.00
2024-03-23T07:50:51.857Z,0.00
2024-03-23T07:51:51.815Z,0.00
2024-03-23T07:52:51.786Z,0.00
2024-03-23T07:53:51.778Z,0.00
2024-03-23T07:54:51.777Z,0.00
2024-03-23T07:55:51.761Z,0.00
2024-03-23T07:56:51.737Z,0.00
2024-03-23T07:57:51.738Z,0.00
2024-03-23T07:58:51.712Z,0.00
2024-03-23T07:59:51.716Z,0.00
2024-03-23T08:00:51.705Z,0.00
2024-03-23T08:01:51.694Z,5.62
2024-03-23T08:02:51.672Z,0.00
2024-03-23T08:03:51.681Z,5.62
2024-03-23T08:04:51.729Z,0.00
2024-03-23T08:05:51.641Z,0.00
2024-03-23T08:07:59.206Z,0.00
2024-03-23T08:08:51.612Z,0.00
2024-03-23T08:09:51.595Z,0.00
2024-03-23T08:10:51.626Z,0.00
2024-03-23T08:11:51.585Z,0.00
2024-03-23T08:12:51.564Z,0.00
2024-03-23T08:13:51.551Z,0.00
2024-03-23T08:14:51.577Z,0.00
2024-03-23T08:15:51.535Z,0.00
2024-03-23T08:16:51.529Z,0.00
2024-03-23T08:17:51.561Z,5.62
2024-03-23T08:18:51.496Z,5.62
2024-03-23T08:19:51.501Z,5.62
2024-03-23T08:20:51.553Z,5.62
2024-03-23T08:21:51.555Z,5.62
2024-03-23T08:22:51.456Z,5.62
2024-03-23T08:23:51.436Z,5.62
2024-03-23T08:24:51.427Z,0.00
2024-03-23T08:25:51.416Z,0.00
2024-03-23T08:26:53.721Z,0.00
2024-03-23T08:27:51.483Z,0.00
2024-03-23T08:28:51.394Z,5.62
2024-03-23T08:29:51.385Z,5.62
2024-03-23T08:30:51.364Z,0.00
2024-03-23T08:31:51.410Z,0.00
2024-03-23T08:32:51.336Z,0.00
2024-03-23T08:33:51.387Z,0.00
2024-03-23T08:34:51.337Z,0.00
2024-03-23T08:35:51.319Z,0.00
2024-03-23T08:36:51.300Z,0.00
2024-03-23T08:37:51.299Z,0.00
2024-03-23T08:38:51.304Z,5.62
2024-03-23T08:39:51.276Z,5.62
2024-03-23T08:40:51.247Z,5.62
2024-03-23T08:41:51.253Z,0.00
2024-03-23T08:42:51.236Z,0.00
2024-03-23T08:43:51.223Z,0.00
2024-03-23T08:44:51.224Z,0.00
2024-03-23T08:45:51.203Z,5.62
2024-03-23T08:46:51.197Z,0.00
2024-03-23T08:47:51.186Z,0.00
2024-03-23T08:48:51.178Z,0.00
2024-03-23T08:49:51.164Z,0.00
2024-03-23T08:50:51.160Z,0.00
2024-03-23T08:51:51.127Z,0.00
2024-03-23T08:52:51.119Z,0.00
2024-03-23T08:53:51.108Z,0.00
2024-03-23T08:54:51.123Z,0.00
2024-03-23T08:55:53.203Z,0.00
2024-03-23T08:56:51.069Z,5.62
2024-03-23T08:57:51.102Z,5.62
2024-03-23T08:58:51.049Z,5.62
2024-03-23T08:59:51.046Z,11.25
2024-03-23T09:00:51.071Z,11.25
2024-03-23T09:01:51.024Z,11.25
2024-03-23T09:02:51.033Z,11.25
2024-03-23T09:03:51.016Z,11.25
2024-03-23T09:04:51.000Z,11.25
2024-03-23T09:05:50.971Z,11.25
2024-03-23T09:06:50.986Z,11.25
2024-03-23T09:07:50.965Z,5.62
2024-03-23T09:08:50.939Z,5.62
2024-03-23T09:09:50.933Z,5.62
2024-03-23T09:10:50.924Z,5.62
2024-03-23T09:11:50.912Z,5.62
2024-03-23T09:12:50.912Z,5.62
2024-03-23T09:13:50.923Z,11.25
2024-03-23T09:14:50.883Z,5.62
2024-03-23T09:15:50.864Z,11.25
2024-03-23T09:16:50.854Z,11.25
2024-03-23T09:17:50.859Z,11.25
2024-03-23T09:18:50.825Z,11.25
2024-03-23T09:19:50.885Z,11.25
2024-03-23T09:20:50.810Z,11.25
2024-03-23T09:21:50.816Z,11.25
2024-03-23T09:22:50.786Z,11.25
2024-03-23T09:23:50.787Z,11.25
2024-03-23T09:24:50.757Z,11.25
2024-03-23T09:25:50.744Z,16.88
2024-03-23T09:26:50.766Z,16.88
2024-03-23T09:27:50.735Z,16.88
2024-03-23T09:28:50.725Z,22.50
2024-03-23T09:29:50.699Z,22.50
2024-03-23T09:30:50.688Z,28.12
2024-03-23T09:31:50.678Z,28.12
2024-03-23T09:32:50.693Z,28.12
2024-03-23T09:33:50.663Z,22.50
2024-03-23T09:34:50.668Z,22.50
2024-03-23T09:35:50.657Z,22.50
2024-03-23T09:36:50.628Z,16.88
2024-03-23T09:37:50.612Z,16.88
2024-03-23T09:38:50.630Z,11.25
2024-03-23T09:39:50.611Z,11.25
2024-03-23T09:40:50.611Z,11.25
2024-03-23T09:41:50.562Z,5.62
2024-03-23T09:42:50.559Z,5.62
2024-03-23T09:43:50.560Z,5.62
2024-03-23T09:44:50.533Z,5.62
2024-03-23T09:45:50.538Z,5.62
2024-03-23T09:46:50.508Z,5.62
2024-03-23T09:47:51.349Z,5.62
2024-03-23T09:48:50.483Z,5.62
2024-03-23T09:49:50.498Z,5.62
2024-03-23T09:50:50.504Z,5.62
2024-03-23T09:51:50.467Z,5.62
2024-03-23T09:52:50.440Z,5.62
2024-03-23T09:53:50.437Z,5.62
2024-03-23T09:54:50.421Z,11.25
2024-03-23T09:55:50.415Z,11.25
2024-03-23T09:56:50.434Z,11.25
2024-03-23T09:57:50.382Z,11.25
2024-03-23T09:58:50.370Z,11.25
2024-03-23T09:59:50.364Z,11.25
2024-03-23T10:00:50.369Z,11.25
2024-03-23T10:01:50.392Z,5.62
2024-03-23T10:02:50.378Z,5.62
2024-03-23T10:03:50.328Z,5.62
2024-03-23T10:04:50.304Z,5.62
2024-03-23T10:05:50.313Z,5.62
2024-03-23T10:06:50.283Z,5.62
2024-03-23T10:07:50.288Z,5.62
2024-03-23T10:08:50.270Z,5.62
2024-03-23T10:09:50.251Z,5.62
2024-03-23T10:10:50.254Z,5.62
2024-03-23T10:11:50.270Z,5.62
2024-03-23T10:12:50.242Z,5.62
2024-03-23T10:13:50.213Z,5.62
2024-03-23T10:14:50.222Z,5.62
2024-03-23T10:15:50.187Z,5.62
2024-03-23T10:16:50.192Z,5.62
2024-03-23T10:17:50.178Z,5.62
2024-03-23T10:18:50.150Z,5.62
2024-03-23T10:19:50.143Z,5.62
2024-03-23T10:20:50.128Z,5.62
2024-03-23T10:21:50.140Z,5.62
2024-03-23T10:22:50.108Z,11.25
2024-03-23T10:23:50.134Z,5.62
2024-03-23T10:24:50.093Z,11.25
2024-03-23T10:25:50.081Z,11.25
2024-03-23T10:26:50.063Z,11.25
2024-03-23T10:27:50.101Z,11.25
2024-03-23T10:28:50.050Z,16.88
2024-03-23T10:29:50.026Z,16.88
2024-03-23T10:30:50.020Z,16.88
2024-03-23T10:31:50.029Z,11.25
2024-03-23T10:32:49.996Z,11.25
2024-03-23T10:33:49.983Z,11.25
2024-03-23T10:34:49.985Z,11.25
2024-03-23T10:35:50.730Z,11.25
2024-03-23T10:36:49.967Z,11.25
2024-03-23T10:37:49.961Z,11.25
2024-03-23T10:38:49.948Z,16.88
2024-03-23T10:39:49.925Z,16.88
2024-03-23T10:40:49.943Z,16.88
2024-03-23T10:41:49.896Z,16.88
2024-03-23T10:42:49.924Z,22.50
2024-03-23T10:43:49.879Z,16.88
2024-03-23T10:44:49.930Z,16.88
2024-03-23T10:45:49.880Z,16.88
2024-03-23T10:46:49.839Z,11.25
2024-03-23T10:47:49.834Z,16.88
2024-03-23T10:48:49.834Z,16.88
2024-03-23T10:49:49.835Z,16.88
2024-03-23T10:50:49.797Z,16.88
2024-03-23T10:51:49.787Z,16.88
2024-03-23T10:52:49.786Z,16.88
2024-03-23T10:53:49.777Z,16.88
2024-03-23T10:54:49.759Z,16.88
2024-03-23T10:55:49.769Z,16.88
2024-03-23T10:56:49.730Z,16.88
2024-03-23T10:57:49.730Z,22.50
2024-03-23T10:58:49.714Z,22.50
2024-03-23T10:59:49.703Z,22.50
2024-03-23T11:00:49.724Z,28.12
2024-03-23T11:01:49.686Z,28.12
2024-03-23T11:02:49.662Z,28.12
2024-03-23T11:03:49.656Z,28.12
2024-03-23T11:04:49.648Z,33.75
2024-03-23T11:05:49.642Z,28.12
2024-03-23T11:06:49.665Z,28.12
2024-03-23T11:07:49.685Z,28.12
2024-03-23T11:08:49.593Z,28.12
2024-03-23T11:09:49.587Z,22.50
2024-03-23T11:10:49.584Z,22.50
2024-03-23T11:11:49.576Z,22.50
2024-03-23T11:12:49.565Z,28.12
2024-03-23T11:13:49.726Z,28.12
2024-03-23T11:14:49.530Z,28.12
2024-03-23T11:15:49.514Z,28.12
2024-03-23T11:16:49.517Z,28.12
2024-03-23T11:17:49.505Z,28.12
2024-03-23T11:18:49.506Z,28.12
2024-03-23T11:19:50.739Z,28.12
2024-03-23T11:20:49.476Z,22.50
2024-03-23T11:21:49.459Z,22.50
2024-03-23T11:22:49.466Z,22.50
2024-03-23T11:23:49.430Z,28.12
2024-03-23T11:24:49.416Z,33.75
2024-03-23T11:25:50.327Z,33.75
2024-03-23T11:26:49.395Z,33.75
2024-03-23T11:27:49.392Z,33.75
2024-03-23T11:28:49.390Z,33.75
2024-03-23T11:29:49.363Z,28.12
2024-03-23T11:30:49.356Z,28.12
2024-03-23T11:31:49.351Z,28.12
2024-03-23T11:32:49.334Z,28.12
2024-03-23T11:33:49.341Z,28.12
2024-03-23T11:34:49.347Z,28.12
2024-03-23T11:35:49.312Z,28.12
2024-03-23T11:36:49.293Z,28.12
2024-03-23T11:37:49.275Z,33.75
2024-03-23T11:38:49.285Z,33.75
2024-03-23T11:39:49.288Z,39.38
2024-03-23T11:40:49.238Z,39.38
2024-03-23T11:41:49.234Z,45.00
2024-03-23T11:42:49.225Z,45.00
2024-03-23T11:43:50.773Z,45.00
2024-03-23T11:44:49.217Z,50.62
2024-03-23T11:45:49.200Z,50.62
2024-03-23T11:46:49.178Z,50.62
2024-03-23T11:47:49.171Z,50.62
2024-03-23T11:48:49.190Z,50.62
2024-03-23T11:49:50.613Z,45.00
2024-03-23T11:50:49.163Z,33.75
2024-03-23T11:51:49.156Z,45.00
2024-03-23T11:52:49.111Z,45.00
2024-03-23T11:53:49.125Z,33.75
2024-03-23T11:54:49.110Z,39.38
2024-03-23T11:55:50.883Z,33.75
2024-03-23T11:56:49.072Z,22.50
2024-03-23T11:57:49.050Z,33.75
2024-03-23T11:58:49.048Z,39.38
2024-03-23T11:59:49.039Z,39.38
2024-03-23T12:00:49.053Z,39.38
2024-03-23T12:01:50.417Z,39.38
2024-03-23T12:02:49.012Z,39.38
2024-03-23T12:03:49.003Z,28.12
2024-03-23T12:04:48.996Z,39.38
2024-03-23T12:05:48.973Z,39.38
2024-03-23T12:06:48.955Z,16.88
2024-03-23T12:07:50.441Z,16.88
2024-03-23T12:08:48.955Z,39.38
2024-03-23T12:09:48.921Z,33.75
2024-03-23T12:10:48.947Z,33.75
2024-03-23T12:11:48.907Z,28.12
2024-03-23T12:12:48.898Z,39.38
2024-03-23T12:13:48.916Z,33.75
2024-03-23T12:14:48.894Z,39.38
2024-03-23T12:15:48.893Z,39.38
2024-03-23T12:16:48.850Z,39.38
2024-03-23T12:17:48.838Z,39.38
2024-03-23T12:18:48.830Z,33.75
2024-03-23T12:19:48.874Z,33.75
2024-03-23T12:20:48.805Z,33.75
2024-03-23T12:21:48.806Z,22.50
2024-03-23T12:22:48.795Z,22.50
2024-03-23T12:23:48.783Z,22.50
2024-03-23T12:24:48.775Z,33.75
2024-03-23T12:25:48.752Z,16.88
2024-03-23T12:26:48.739Z,28.12
2024-03-23T12:27:48.728Z,33.75
2024-03-23T12:28:48.737Z,39.38
2024-03-23T12:29:48.713Z,39.38
2024-03-23T12:30:48.720Z,33.75
2024-03-23T12:31:48.728Z,28.12
2024-03-23T12:32:48.744Z,28.12
2024-03-23T12:33:48.707Z,28.12
2024-03-23T12:34:48.668Z,28.12
2024-03-23T12:35:48.642Z,45.00
2024-03-23T12:36:48.636Z,28.12
2024-03-23T12:37:48.671Z,28.12
2024-03-23T12:38:48.617Z,33.75
2024-03-23T12:39:48.615Z,28.12
2024-03-23T12:40:48.597Z,28.12
2024-03-23T12:41:48.577Z,33.75
2024-03-23T12:42:48.567Z,39.38
2024-03-23T12:43:48.584Z,39.38
2024-03-23T12:44:48.545Z,33.75
2024-03-23T12:45:48.577Z,22.50
2024-03-23T12:46:48.517Z,28.12
2024-03-23T12:47:48.525Z,28.12
2024-03-23T12:48:48.501Z,28.12
2024-03-23T12:49:48.510Z,28.12
2024-03-23T12:50:48.490Z,33.75
2024-03-23T12:51:48.461Z,22.50
2024-03-23T12:52:48.473Z,33.75
2024-03-23T12:53:48.462Z,33.75
2024-03-23T12:54:48.455Z,39.38
2024-03-23T12:55:48.419Z,33.75
2024-03-23T12:56:48.436Z,28.12
2024-03-23T12:57:48.404Z,28.12
2024-03-23T12:58:48.397Z,22.50
2024-03-23T12:59:48.434Z,16.88
2024-03-23T13:00:48.424Z,16.88
2024-03-23T13:01:48.362Z,16.88
2024-03-23T13:02:48.363Z,16.88
2024-03-23T13:03:48.408Z,16.88
2024-03-23T13:04:48.331Z,28.12
2024-03-23T13:05:48.398Z,28.12
2024-03-23T13:06:48.404Z,28.12
2024-03-23T13:07:48.296Z,28.12
2024-03-23T13:08:48.290Z,28.12
2024-03-23T13:09:48.323Z,28.12
2024-03-23T13:10:48.295Z,28.12
2024-03-23T13:11:48.272Z,28.12
2024-03-23T13:12:48.249Z,28.12